sensor_id;sensor_type;location;lat;lon;timestamp;P1;durP1;ratioP1;P2;durP2;ratioP2
4325;SDS011;58429;49.826;10.880;2024-02-15T00:00:37;2;;;0.9;;
4325;SDS011;58429;49.826;10.880;2024-02-15T00:01:37;2;;;0.9;;
4325;SDS011;58429;49.826;10.880;2024-02-15T00:02:37;2;;;0.9;;
4325;SDS011;58429;49.826;10.880;2024-02-15T00:03:37;1.8;;;1;;
4325;SDS011;58429;49.826;10.880;2024-02-15T00:04:37;1.8;;;1;;
4325;SDS011;58429;49.826;10.880;2024-02-15T00:05:37;1.8;;;1;;
4325;SDS011;58429;49.826;10.880;2024-02-15T00:06:37;1.5;;;1.1;;
4325;SDS011;58429;49.826;10.880;2024-02-15T00:07:37;1.5;;;1.1;;
4325;SDS011;58429;49.826;10.880;2024-02-15T00:08:37;1.5;;;1.1;;
4325;SDS011;58429;49.826;10.880;2024-02-15T00:09:37;1.3;;;0.9;;
4325;SDS011;58429;49.826;10.880;2024-02-15T00:10:37;1.3;;;0.9;;
4325;SDS011;58429;49.826;10.880;2024-02-15T00:11:37;1.3;;;0.9;;
4325;SDS011;58429;49.826;10.880;2024-02-15T00:12:37;1.5;;;1;;
4325;SDS011;58429;49.826;10.880;2024-02-15T00:13:37;1.5;;;1;;
4325;SDS011;58429;49.826;10.880;2024-02-15T00:14:37;1.5;;;1;;
4325;SDS011;58429;49.826;10.880;2024-02-15T00:15:37;1.3;;;1.1;;
4325;SDS011;58429;49.826;10.880;2024-02-15T00:16:37;1.3;;;1.1;;
4325;SDS011;58429;49.826;10.880;2024-02-15T00:17:37;1.3;;;1.1;;
4325;SDS011;58429;49.826;10.880;2024-02-15T00:18:37;1.6;;;1;;
4325;SDS011;58429;49.826;10.880;2024-02-15T00:19:37;1.6;;;1;;
4325;SDS011;58429;49.826;10.880;2024-02-15T00:20:37;1.6;;;1;;
4325;SDS011;58429;49.826;10.880;2024-02-15T00:21:37;2.3;;;0.8;;
4325;SDS011;58429;49.826;10.880;2024-02-15T00:22:37;2.3;;;0.8;;
4325;SDS011;58429;49.826;10.880;2024-02-15T00:23:37;2.3;;;0.8;;
4325;SDS011;58429;49.826;10.880;2024-02-15T00:24:37;1;;;0.8;;
4325;SDS011;58429;49.826;10.880;2024-02-15T00:25:37;1;;;0.8;;
4325;SDS011;58429;49.826;10.880;2024-02-15T00:26:37;1;;;0.8;;
4325;SDS011;58429;49.826;10.880;2024-02-15T00:27:37;1.5;;;1.1;;
4325;SDS011;58429;49.826;10.880;2024-02-15T00:28:37;1.5;;;1.1;;
4325;SDS011;58429;49.826;10.880;2024-02-15T00:29:37;1.5;;;1.1;;
4325;SDS011;58429;49.826;10.880;2024-02-15T00:30:37;2.4;;;0.9;;
4325;SDS011;58429;49.826;10.880;2024-02-15T00:31:37;2.4;;;0.9;;
4325;SDS011;58429;49.826;10.880;2024-02-15T00:32:37;2.4;;;0.9;;
4325;SDS011;58429;49.826;10.880;2024-02-15T00:33:37;1.1;;;0.8;;
4325;SDS011;58429;49.826;10.880;2024-02-15T00:34:37;1.1;;;0.8;;
4325;SDS011;58429;49.826;10.880;2024-02-15T00:35:37;1.1;;;0.8;;
4325;SDS011;58429;49.826;10.880;2024-02-15T00:36:37;1.4;;;0.9;;
4325;SDS011;58429;49.826;10.880;2024-02-15T00:37:37;1.4;;;0.9;;
4325;SDS011;58429;49.826;10.880;2024-02-15T00:38:37;1.4;;;0.9;;
4325;SDS011;58429;49.826;10.880;2024-02-15T00:39:37;1.8;;;1;;
4325;SDS011;58429;49.826;10.880;2024-02-15T00:40:37;1.8;;;1;;
4325;SDS011;58429;49.826;10.880;2024-02-15T00:41:37;1.8;;;1;;
4325;SDS011;58429;49.826;10.880;2024-02-15T00:42:37;1.7;;;1;;
4325;SDS011;58429;49.826;10.880;2024-02-15T00:43:37;1.7;;;1;;
4325;SDS011;58429;49.826;10.880;2024-02-15T00:44:37;1.7;;;1;;
4325;SDS011;58429;49.826;10.880;2024-02-15T00:45:37;1.1;;;0.9;;
4325;SDS011;58429;49.826;10.880;2024-02-15T00:46:37;1.1;;;0.9;;
4325;SDS011;58429;49.826;10.880;2024-02-15T00:47:37;1.1;;;0.9;;
4325;SDS011;58429;49.826;10.880;2024-02-15T00:48:37;1;;;0.8;;
4325;SDS011;58429;49.826;10.880;2024-02-15T00:49:37;1;;;0.8;;
4325;SDS011;58429;49.826;10.880;2024-02-15T00:50:37;1;;;0.8;;
4325;SDS011;58429;49.826;10.880;2024-02-15T00:51:37;2;;;0.9;;
4325;SDS011;58429;49.826;10.880;2024-02-15T00:52:37;2;;;0.9;;
4325;SDS011;58429;49.826;10.880;2024-02-15T00:53:37;2;;;0.9;;
4325;SDS011;58429;49.826;10.880;2024-02-15T00:54:37;1.2;;;1;;
4325;SDS011;58429;49.826;10.880;2024-02-15T00:55:37;1.2;;;1;;
4325;SDS011;58429;49.826;10.880;2024-02-15T00:56:37;1.2;;;1;;
4325;SDS011;58429;49.826;10.880;2024-02-15T00:57:37;1.5;;;0.9;;
4325;SDS011;58429;49.826;10.880;2024-02-15T00:58:37;1.5;;;0.9;;
4325;SDS011;58429;49.826;10.880;2024-02-15T00:59:37;1.5;;;0.9;;
4325;SDS011;58429;49.826;10.880;2024-02-15T01:00:37;1.7;;;1;;
4325;SDS011;58429;49.826;10.880;2024-02-15T01:01:37;1.7;;;1;;
4325;SDS011;58429;49.826;10.880;2024-02-15T01:02:37;1.7;;;1;;
4325;SDS011;58429;49.826;10.880;2024-02-15T01:03:37;1.1;;;0.9;;
4325;SDS011;58429;49.826;10.880;2024-02-15T01:04:37;1.1;;;0.9;;
4325;SDS011;58429;49.826;10.880;2024-02-15T01:05:37;1.1;;;0.9;;
4325;SDS011;58429;49.826;10.880;2024-02-15T01:06:37;1.4;;;1;;
4325;SDS011;58429;49.826;10.880;2024-02-15T01:07:37;1.4;;;1;;
4325;SDS011;58429;49.826;10.880;2024-02-15T01:08:37;1.4;;;1;;
4325;SDS011;58429;49.826;10.880;2024-02-15T01:09:37;1;;;0.8;;
4325;SDS011;58429;49.826;10.880;2024-02-15T01:10:37;1;;;0.8;;
4325;SDS011;58429;49.826;10.880;2024-02-15T01:11:37;1;;;0.8;;
4325;SDS011;58429;49.826;10.880;2024-02-15T01:12:37;1.4;;;0.9;;
4325;SDS011;58429;49.826;10.880;2024-02-15T01:13:37;1.4;;;0.9;;
4325;SDS011;58429;49.826;10.880;2024-02-15T01:14:37;1.4;;;0.9;;
4325;SDS011;58429;49.826;10.880;2024-02-15T01:15:37;1.2;;;0.8;;
4325;SDS011;58429;49.826;10.880;2024-02-15T01:16:37;1.2;;;0.8;;
4325;SDS011;58429;49.826;10.880;2024-02-15T01:17:37;1.2;;;0.8;;
4325;SDS011;58429;49.826;10.880;2024-02-15T01:18:37;1.6;;;1.1;;
4325;SDS011;58429;49.826;10.880;2024-02-15T01:19:37;1.6;;;1.1;;
4325;SDS011;58429;49.826;10.880;2024-02-15T01:20:37;1.6;;;1.1;;
4325;SDS011;58429;49.826;10.880;2024-02-15T01:21:37;1.2;;;0.9;;
4325;SDS011;58429;49.826;10.880;2024-02-15T01:22:37;1.2;;;0.9;;
4325;SDS011;58429;49.826;10.880;2024-02-15T01:23:37;1.2;;;0.9;;
4325;SDS011;58429;49.826;10.880;2024-02-15T01:24:37;1.2;;;1;;
4325;SDS011;58429;49.826;10.880;2024-02-15T01:25:37;1.2;;;1;;
4325;SDS011;58429;49.826;10.880;2024-02-15T01:26:37;1.2;;;1;;
4325;SDS011;58429;49.826;10.880;2024-02-15T01:27:37;1.2;;;0.9;;
4325;SDS011;58429;49.826;10.880;2024-02-15T01:28:37;1.2;;;0.9;;
4325;SDS011;58429;49.826;10.880;2024-02-15T01:29:37;1.2;;;0.9;;
4325;SDS011;58429;49.826;10.880;2024-02-15T01:30:37;1;;;0.9;;
4325;SDS011;58429;49.826;10.880;2024-02-15T01:31:37;1;;;0.9;;
4325;SDS011;58429;49.826;10.880;2024-02-15T01:32:37;1;;;0.9;;
4325;SDS011;58429;49.826;10.880;2024-02-15T01:33:37;1.1;;;0.9;;
4325;SDS011;58429;49.826;10.880;2024-02-15T01:34:37;1.1;;;0.9;;
4325;SDS011;58429;49.826;10.880;2024-02-15T01:35:37;1.1;;;0.9;;
4325;SDS011;58429;49.826;10.880;2024-02-15T01:36:37;1.1;;;1;;
4325;SDS011;58429;49.826;10.880;2024-02-15T01:37:37;1.1;;;1;;
4325;SDS011;58429;49.826;10.880;2024-02-15T01:38:37;1.1;;;1;;
4325;SDS011;58429;49.826;10.880;2024-02-15T01:39:37;0.9;;;0.8;;
4325;SDS011;58429;49.826;10.880;2024-02-15T01:40:37;0.9;;;0.8;;
4325;SDS011;58429;49.826;10.880;2024-02-15T01:41:37;0.9;;;0.8;;
4325;SDS011;58429;49.826;10.880;2024-02-15T01:42:37;1.7;;;1;;
4325;SDS011;58429;49.826;10.880;2024-02-15T01:43:37;1.7;;;1;;
4325;SDS011;58429;49.826;10.880;2024-02-15T01:44:37;1.7;;;1;;
4325;SDS011;58429;49.826;10.880;2024-02-15T01:45:37;0.9;;;0.8;;
4325;SDS011;58429;49.826;10.880;2024-02-15T01:46:37;0.9;;;0.8;;
4325;SDS011;58429;49.826;10.880;2024-02-15T01:47:37;0.9;;;0.8;;
4325;SDS011;58429;49.826;10.880;2024-02-15T01:48:37;1.3;;;1.2;;
4325;SDS011;58429;49.826;10.880;2024-02-15T01:49:37;1.3;;;1.2;;
4325;SDS011;58429;49.826;10.880;2024-02-15T01:50:37;1.3;;;1.2;;
4325;SDS011;58429;49.826;10.880;2024-02-15T01:51:37;1.1;;;0.8;;
4325;SDS011;58429;49.826;10.880;2024-02-15T01:52:37;1.1;;;0.8;;
4325;SDS011;58429;49.826;10.880;2024-02-15T01:53:37;1.1;;;0.8;;
4325;SDS011;58429;49.826;10.880;2024-02-15T01:54:37;1.1;;;1;;
4325;SDS011;58429;49.826;10.880;2024-02-15T01:55:37;1.1;;;1;;
4325;SDS011;58429;49.826;10.880;2024-02-15T01:56:37;1.1;;;1;;
4325;SDS011;58429;49.826;10.880;2024-02-15T01:57:37;1.4;;;0.8;;
4325;SDS011;58429;49.826;10.880;2024-02-15T01:58:37;1.4;;;0.8;;
4325;SDS011;58429;49.826;10.880;2024-02-15T01:59:37;1.4;;;0.8;;
4325;SDS011;58429;49.826;10.880;2024-02-15T02:00:37;1.1;;;0.9;;
4325;SDS011;58429;49.826;10.880;2024-02-15T02:01:37;1.1;;;0.9;;
4325;SDS011;58429;49.826;10.880;2024-02-15T02:02:37;1.1;;;0.9;;
4325;SDS011;58429;49.826;10.880;2024-02-15T02:03:37;1.5;;;1;;
4325;SDS011;58429;49.826;10.880;2024-02-15T02:04:37;1.5;;;1;;
4325;SDS011;58429;49.826;10.880;2024-02-15T02:05:37;1.5;;;1;;
4325;SDS011;58429;49.826;10.880;2024-02-15T02:06:37;1.4;;;1.1;;
4325;SDS011;58429;49.826;10.880;2024-02-15T02:07:37;1.4;;;1.1;;
4325;SDS011;58429;49.826;10.880;2024-02-15T02:08:37;1.4;;;1.1;;
4325;SDS011;58429;49.826;10.880;2024-02-15T02:09:37;1.1;;;0.8;;
4325;SDS011;58429;49.826;10.880;2024-02-15T02:10:37;1.1;;;0.8;;
4325;SDS011;58429;49.826;10.880;2024-02-15T02:11:37;1.1;;;0.8;;
4325;SDS011;58429;49.826;10.880;2024-02-15T02:12:37;0.9;;;0.8;;
4325;SDS011;58429;49.826;10.880;2024-02-15T02:13:37;0.9;;;0.8;;
4325;SDS011;58429;49.826;10.880;2024-02-15T02:14:37;0.9;;;0.8;;
4325;SDS011;58429;49.826;10.880;2024-02-15T02:15:37;1.2;;;0.9;;
4325;SDS011;58429;49.826;10.880;2024-02-15T02:16:37;1.2;;;0.9;;
4325;SDS011;58429;49.826;10.880;2024-02-15T02:17:37;1.2;;;0.9;;
4325;SDS011;58429;49.826;10.880;2024-02-15T02:18:37;1.2;;;0.9;;
4325;SDS011;58429;49.826;10.880;2024-02-15T02:19:37;1.2;;;0.9;;
4325;SDS011;58429;49.826;10.880;2024-02-15T02:20:37;1.2;;;0.9;;
4325;SDS011;58429;49.826;10.880;2024-02-15T02:21:37;1;;;0.8;;
4325;SDS011;58429;49.826;10.880;2024-02-15T02:22:37;1;;;0.8;;
4325;SDS011;58429;49.826;10.880;2024-02-15T02:23:37;1;;;0.8;;
4325;SDS011;58429;49.826;10.880;2024-02-15T02:24:40;0.9;;;0.9;;
4325;SDS011;58429;49.826;10.880;2024-02-15T02:25:37;0.9;;;0.9;;
4325;SDS011;58429;49.826;10.880;2024-02-15T02:26:37;0.9;;;0.9;;
4325;SDS011;58429;49.826;10.880;2024-02-15T02:27:37;1.4;;;1;;
4325;SDS011;58429;49.826;10.880;2024-02-15T02:28:37;1.4;;;1;;
4325;SDS011;58429;49.826;10.880;2024-02-15T02:29:41;1.4;;;1;;
4325;SDS011;58429;49.826;10.880;2024-02-15T02:30:37;1.5;;;0.9;;
4325;SDS011;58429;49.826;10.880;2024-02-15T02:31:37;1.5;;;0.9;;
4325;SDS011;58429;49.826;10.880;2024-02-15T02:32:37;1.5;;;0.9;;
4325;SDS011;58429;49.826;10.880;2024-02-15T02:33:37;1;;;0.7;;
4325;SDS011;58429;49.826;10.880;2024-02-15T02:34:37;1;;;0.7;;
4325;SDS011;58429;49.826;10.880;2024-02-15T02:35:37;1;;;0.7;;
4325;SDS011;58429;49.826;10.880;2024-02-15T02:36:37;1.1;;;0.8;;
4325;SDS011;58429;49.826;10.880;2024-02-15T02:37:37;1.1;;;0.8;;
4325;SDS011;58429;49.826;10.880;2024-02-15T02:38:37;1.1;;;0.8;;
4325;SDS011;58429;49.826;10.880;2024-02-15T02:39:37;1.2;;;0.9;;
4325;SDS011;58429;49.826;10.880;2024-02-15T02:40:37;1.2;;;0.9;;
4325;SDS011;58429;49.826;10.880;2024-02-15T02:41:38;1.2;;;0.9;;
4325;SDS011;58429;49.826;10.880;2024-02-15T02:42:46;1.2;;;0.8;;
4325;SDS011;58429;49.826;10.880;2024-02-15T02:43:38;1.2;;;0.8;;
4325;SDS011;58429;49.826;10.880;2024-02-15T02:44:37;1.2;;;0.8;;
4325;SDS011;58429;49.826;10.880;2024-02-15T02:45:37;1.2;;;0.8;;
4325;SDS011;58429;49.826;10.880;2024-02-15T02:46:37;1.2;;;0.8;;
4325;SDS011;58429;49.826;10.880;2024-02-15T02:47:37;1.2;;;0.8;;
4325;SDS011;58429;49.826;10.880;2024-02-15T02:48:37;1.1;;;0.7;;
4325;SDS011;58429;49.826;10.880;2024-02-15T02:49:37;1.1;;;0.7;;
4325;SDS011;58429;49.826;10.880;2024-02-15T02:50:37;1.1;;;0.7;;
4325;SDS011;58429;49.826;10.880;2024-02-15T02:51:37;0.9;;;0.8;;
4325;SDS011;58429;49.826;10.880;2024-02-15T02:52:37;0.9;;;0.8;;
4325;SDS011;58429;49.826;10.880;2024-02-15T02:53:37;0.9;;;0.8;;
4325;SDS011;58429;49.826;10.880;2024-02-15T02:54:37;1.8;;;0.9;;
4325;SDS011;58429;49.826;10.880;2024-02-15T02:55:37;1.8;;;0.9;;
4325;SDS011;58429;49.826;10.880;2024-02-15T02:56:37;1.8;;;0.9;;
4325;SDS011;58429;49.826;10.880;2024-02-15T02:57:38;0.9;;;0.9;;
4325;SDS011;58429;49.826;10.880;2024-02-15T02:58:37;0.9;;;0.9;;
4325;SDS011;58429;49.826;10.880;2024-02-15T02:59:37;0.9;;;0.9;;
4325;SDS011;58429;49.826;10.880;2024-02-15T03:00:37;1;;;0.9;;
4325;SDS011;58429;49.826;10.880;2024-02-15T03:01:37;1;;;0.9;;
4325;SDS011;58429;49.826;10.880;2024-02-15T03:02:37;1;;;0.9;;
4325;SDS011;58429;49.826;10.880;2024-02-15T03:03:37;1.1;;;0.9;;
4325;SDS011;58429;49.826;10.880;2024-02-15T03:04:37;1.1;;;0.9;;
4325;SDS011;58429;49.826;10.880;2024-02-15T03:05:37;1.1;;;0.9;;
4325;SDS011;58429;49.826;10.880;2024-02-15T03:06:37;1.1;;;0.9;;
4325;SDS011;58429;49.826;10.880;2024-02-15T03:07:38;1.2;;;0.8;;
4325;SDS011;58429;49.826;10.880;2024-02-15T03:08:37;1.2;;;0.8;;
4325;SDS011;58429;49.826;10.880;2024-02-15T03:09:37;1.2;;;0.8;;
4325;SDS011;58429;49.826;10.880;2024-02-15T03:10:37;1.3;;;0.9;;
4325;SDS011;58429;49.826;10.880;2024-02-15T03:11:37;1.3;;;0.9;;
4325;SDS011;58429;49.826;10.880;2024-02-15T03:12:38;1.3;;;0.9;;
4325;SDS011;58429;49.826;10.880;2024-02-15T03:13:38;2.1;;;0.9;;
4325;SDS011;58429;49.826;10.880;2024-02-15T03:14:37;2.1;;;0.9;;
4325;SDS011;58429;49.826;10.880;2024-02-15T03:15:37;2.1;;;0.9;;
4325;SDS011;58429;49.826;10.880;2024-02-15T03:16:37;1.2;;;0.8;;
4325;SDS011;58429;49.826;10.880;2024-02-15T03:17:37;1.2;;;0.8;;
4325;SDS011;58429;49.826;10.880;2024-02-15T03:18:37;1.2;;;0.8;;
4325;SDS011;58429;49.826;10.880;2024-02-15T03:19:37;1;;;0.8;;
4325;SDS011;58429;49.826;10.880;2024-02-15T03:20:37;1;;;0.8;;
4325;SDS011;58429;49.826;10.880;2024-02-15T03:21:37;1;;;0.8;;
4325;SDS011;58429;49.826;10.880;2024-02-15T03:22:37;1.2;;;0.9;;
4325;SDS011;58429;49.826;10.880;2024-02-15T03:23:37;1.2;;;0.9;;
4325;SDS011;58429;49.826;10.880;2024-02-15T03:24:37;1.2;;;0.9;;
4325;SDS011;58429;49.826;10.880;2024-02-15T03:25:37;1.2;;;0.8;;
4325;SDS011;58429;49.826;10.880;2024-02-15T03:26:37;1.2;;;0.8;;
4325;SDS011;58429;49.826;10.880;2024-02-15T03:27:38;1.2;;;0.8;;
4325;SDS011;58429;49.826;10.880;2024-02-15T03:28:37;0.9;;;0.7;;
4325;SDS011;58429;49.826;10.880;2024-02-15T03:29:38;0.9;;;0.7;;
4325;SDS011;58429;49.826;10.880;2024-02-15T03:30:37;0.9;;;0.7;;
4325;SDS011;58429;49.826;10.880;2024-02-15T03:31:37;0.9;;;0.6;;
4325;SDS011;58429;49.826;10.880;2024-02-15T03:32:38;0.9;;;0.6;;
4325;SDS011;58429;49.826;10.880;2024-02-15T03:33:37;0.9;;;0.6;;
4325;SDS011;58429;49.826;10.880;2024-02-15T03:34:37;1;;;0.9;;
4325;SDS011;58429;49.826;10.880;2024-02-15T03:35:38;1;;;0.9;;
4325;SDS011;58429;49.826;10.880;2024-02-15T03:36:38;1;;;0.9;;
4325;SDS011;58429;49.826;10.880;2024-02-15T03:37:38;1;;;0.8;;
4325;SDS011;58429;49.826;10.880;2024-02-15T03:38:37;1;;;0.8;;
4325;SDS011;58429;49.826;10.880;2024-02-15T03:39:38;1;;;0.8;;
4325;SDS011;58429;49.826;10.880;2024-02-15T03:40:38;1;;;0.9;;
4325;SDS011;58429;49.826;10.880;2024-02-15T03:41:38;1;;;0.9;;
4325;SDS011;58429;49.826;10.880;2024-02-15T03:42:37;1;;;0.9;;
4325;SDS011;58429;49.826;10.880;2024-02-15T03:43:38;1;;;0.7;;
4325;SDS011;58429;49.826;10.880;2024-02-15T03:44:38;1;;;0.7;;
4325;SDS011;58429;49.826;10.880;2024-02-15T03:45:38;1;;;0.7;;
4325;SDS011;58429;49.826;10.880;2024-02-15T03:46:38;1;;;0.7;;
4325;SDS011;58429;49.826;10.880;2024-02-15T03:47:38;1;;;0.7;;
4325;SDS011;58429;49.826;10.880;2024-02-15T03:48:38;1;;;0.7;;
4325;SDS011;58429;49.826;10.880;2024-02-15T03:49:38;0.8;;;0.8;;
4325;SDS011;58429;49.826;10.880;2024-02-15T03:50:38;0.8;;;0.8;;
4325;SDS011;58429;49.826;10.880;2024-02-15T03:51:38;0.8;;;0.8;;
4325;SDS011;58429;49.826;10.880;2024-02-15T03:52:38;1;;;0.6;;
4325;SDS011;58429;49.826;10.880;2024-02-15T03:53:38;1;;;0.6;;
4325;SDS011;58429;49.826;10.880;2024-02-15T03:54:38;1;;;0.6;;
4325;SDS011;58429;49.826;10.880;2024-02-15T03:55:38;0.9;;;0.8;;
4325;SDS011;58429;49.826;10.880;2024-02-15T03:56:45;0.9;;;0.8;;
4325;SDS011;58429;49.826;10.880;2024-02-15T03:57:38;0.9;;;0.8;;
4325;SDS011;58429;49.826;10.880;2024-02-15T03:58:38;0.9;;;0.8;;
4325;SDS011;58429;49.826;10.880;2024-02-15T03:59:38;0.9;;;0.8;;
4325;SDS011;58429;49.826;10.880;2024-02-15T04:00:38;0.9;;;0.8;;
4325;SDS011;58429;49.826;10.880;2024-02-15T04:01:38;1.2;;;0.8;;
4325;SDS011;58429;49.826;10.880;2024-02-15T04:02:38;1.2;;;0.8;;
4325;SDS011;58429;49.826;10.880;2024-02-15T04:03:38;1.2;;;0.8;;
4325;SDS011;58429;49.826;10.880;2024-02-15T04:04:38;0.8;;;0.8;;
4325;SDS011;58429;49.826;10.880;2024-02-15T04:05:38;0.8;;;0.8;;
4325;SDS011;58429;49.826;10.880;2024-02-15T04:06:38;0.8;;;0.8;;
4325;SDS011;58429;49.826;10.880;2024-02-15T04:07:38;0.7;;;0.7;;
4325;SDS011;58429;49.826;10.880;2024-02-15T04:08:38;0.7;;;0.7;;
4325;SDS011;58429;49.826;10.880;2024-02-15T04:09:38;0.7;;;0.7;;
4325;SDS011;58429;49.826;10.880;2024-02-15T04:10:38;0.9;;;0.7;;
4325;SDS011;58429;49.826;10.880;2024-02-15T04:11:38;0.9;;;0.7;;
4325;SDS011;58429;49.826;10.880;2024-02-15T04:12:38;0.9;;;0.7;;
4325;SDS011;58429;49.826;10.880;2024-02-15T04:13:38;0.7;;;0.7;;
4325;SDS011;58429;49.826;10.880;2024-02-15T04:14:38;0.7;;;0.7;;
4325;SDS011;58429;49.826;10.880;2024-02-15T04:15:38;0.7;;;0.7;;
4325;SDS011;58429;49.826;10.880;2024-02-15T04:16:38;0.8;;;0.7;;
4325;SDS011;58429;49.826;10.880;2024-02-15T04:17:38;0.8;;;0.7;;
4325;SDS011;58429;49.826;10.880;2024-02-15T04:18:38;0.8;;;0.7;;
4325;SDS011;58429;49.826;10.880;2024-02-15T04:19:38;1.2;;;0.6;;
4325;SDS011;58429;49.826;10.880;2024-02-15T04:20:38;1.2;;;0.6;;
4325;SDS011;58429;49.826;10.880;2024-02-15T04:21:38;1.2;;;0.6;;
4325;SDS011;58429;49.826;10.880;2024-02-15T04:23:38;0.8;;;0.7;;
4325;SDS011;58429;49.826;10.880;2024-02-15T04:24:38;0.8;;;0.7;;
4325;SDS011;58429;49.826;10.880;2024-02-15T04:25:38;0.9;;;0.7;;
4325;SDS011;58429;49.826;10.880;2024-02-15T04:26:38;0.9;;;0.7;;
4325;SDS011;58429;49.826;10.880;2024-02-15T04:27:38;0.9;;;0.7;;
4325;SDS011;58429;49.826;10.880;2024-02-15T04:28:38;0.7;;;0.7;;
4325;SDS011;58429;49.826;10.880;2024-02-15T04:29:38;0.7;;;0.7;;
4325;SDS011;58429;49.826;10.880;2024-02-15T04:30:38;0.7;;;0.7;;
4325;SDS011;58429;49.826;10.880;2024-02-15T04:31:38;0.9;;;0.7;;
4325;SDS011;58429;49.826;10.880;2024-02-15T04:32:38;0.9;;;0.7;;
4325;SDS011;58429;49.826;10.880;2024-02-15T04:33:38;0.9;;;0.7;;
4325;SDS011;58429;49.826;10.880;2024-02-15T04:34:38;1.1;;;0.7;;
4325;SDS011;58429;49.826;10.880;2024-02-15T04:35:38;1.1;;;0.7;;
4325;SDS011;58429;49.826;10.880;2024-02-15T04:36:38;1.1;;;0.7;;
4325;SDS011;58429;49.826;10.880;2024-02-15T04:37:38;1.4;;;0.8;;
4325;SDS011;58429;49.826;10.880;2024-02-15T04:38:38;1.4;;;0.8;;
4325;SDS011;58429;49.826;10.880;2024-02-15T04:39:38;1.4;;;0.8;;
4325;SDS011;58429;49.826;10.880;2024-02-15T04:40:38;0.9;;;0.7;;
4325;SDS011;58429;49.826;10.880;2024-02-15T04:41:38;0.9;;;0.7;;
4325;SDS011;58429;49.826;10.880;2024-02-15T04:42:38;0.9;;;0.7;;
4325;SDS011;58429;49.826;10.880;2024-02-15T04:43:38;1.4;;;0.8;;
4325;SDS011;58429;49.826;10.880;2024-02-15T04:44:38;1.4;;;0.8;;
4325;SDS011;58429;49.826;10.880;2024-02-15T04:45:38;1.4;;;0.8;;
4325;SDS011;58429;49.826;10.880;2024-02-15T04:46:38;0.9;;;0.8;;
4325;SDS011;58429;49.826;10.880;2024-02-15T04:47:38;0.9;;;0.8;;
4325;SDS011;58429;49.826;10.880;2024-02-15T04:48:38;0.9;;;0.8;;
4325;SDS011;58429;49.826;10.880;2024-02-15T04:49:38;1.2;;;0.8;;
4325;SDS011;58429;49.826;10.880;2024-02-15T04:50:38;1.2;;;0.8;;
4325;SDS011;58429;49.826;10.880;2024-02-15T04:51:38;1.2;;;0.8;;
4325;SDS011;58429;49.826;10.880;2024-02-15T04:52:38;1;;;0.6;;
4325;SDS011;58429;49.826;10.880;2024-02-15T04:53:38;1;;;0.6;;
4325;SDS011;58429;49.826;10.880;2024-02-15T04:54:38;1;;;0.6;;
4325;SDS011;58429;49.826;10.880;2024-02-15T04:55:38;1;;;0.9;;
4325;SDS011;58429;49.826;10.880;2024-02-15T04:56:38;1;;;0.9;;
4325;SDS011;58429;49.826;10.880;2024-02-15T04:57:38;1;;;0.9;;
4325;SDS011;58429;49.826;10.880;2024-02-15T04:58:38;1.1;;;0.8;;
4325;SDS011;58429;49.826;10.880;2024-02-15T04:59:38;1.1;;;0.8;;
4325;SDS011;58429;49.826;10.880;2024-02-15T05:00:38;1.1;;;0.8;;
4325;SDS011;58429;49.826;10.880;2024-02-15T05:01:38;1.1;;;0.7;;
4325;SDS011;58429;49.826;10.880;2024-02-15T05:02:38;1.1;;;0.7;;
4325;SDS011;58429;49.826;10.880;2024-02-15T05:03:38;1.1;;;0.7;;
4325;SDS011;58429;49.826;10.880;2024-02-15T05:04:38;0.8;;;0.6;;
4325;SDS011;58429;49.826;10.880;2024-02-15T05:05:38;0.8;;;0.6;;
4325;SDS011;58429;49.826;10.880;2024-02-15T05:06:38;0.8;;;0.6;;
4325;SDS011;58429;49.826;10.880;2024-02-15T05:07:38;1.3;;;0.7;;
4325;SDS011;58429;49.826;10.880;2024-02-15T05:08:38;1.3;;;0.7;;
4325;SDS011;58429;49.826;10.880;2024-02-15T05:09:38;1.3;;;0.7;;
4325;SDS011;58429;49.826;10.880;2024-02-15T05:10:38;0.7;;;0.7;;
4325;SDS011;58429;49.826;10.880;2024-02-15T05:11:39;0.7;;;0.7;;
4325;SDS011;58429;49.826;10.880;2024-02-15T05:12:38;0.7;;;0.7;;
4325;SDS011;58429;49.826;10.880;2024-02-15T05:13:38;0.7;;;0.7;;
4325;SDS011;58429;49.826;10.880;2024-02-15T05:14:38;0.7;;;0.7;;
4325;SDS011;58429;49.826;10.880;2024-02-15T05:15:38;0.7;;;0.7;;
4325;SDS011;58429;49.826;10.880;2024-02-15T05:16:38;0.8;;;0.8;;
4325;SDS011;58429;49.826;10.880;2024-02-15T05:17:38;0.8;;;0.8;;
4325;SDS011;58429;49.826;10.880;2024-02-15T05:18:38;0.8;;;0.8;;
4325;SDS011;58429;49.826;10.880;2024-02-15T05:19:38;0.7;;;0.7;;
4325;SDS011;58429;49.826;10.880;2024-02-15T05:20:38;0.7;;;0.7;;
4325;SDS011;58429;49.826;10.880;2024-02-15T05:21:38;0.7;;;0.7;;
4325;SDS011;58429;49.826;10.880;2024-02-15T05:22:38;1;;;0.6;;
4325;SDS011;58429;49.826;10.880;2024-02-15T05:23:38;1;;;0.6;;
4325;SDS011;58429;49.826;10.880;2024-02-15T05:24:38;1;;;0.6;;
4325;SDS011;58429;49.826;10.880;2024-02-15T05:25:38;1;;;0.7;;
4325;SDS011;58429;49.826;10.880;2024-02-15T05:26:38;1;;;0.7;;
4325;SDS011;58429;49.826;10.880;2024-02-15T05:27:38;1;;;0.7;;
4325;SDS011;58429;49.826;10.880;2024-02-15T05:28:38;0.8;;;0.6;;
4325;SDS011;58429;49.826;10.880;2024-02-15T05:29:38;0.8;;;0.6;;
4325;SDS011;58429;49.826;10.880;2024-02-15T05:30:38;0.8;;;0.6;;
4325;SDS011;58429;49.826;10.880;2024-02-15T05:31:38;1;;;0.7;;
4325;SDS011;58429;49.826;10.880;2024-02-15T05:32:38;1;;;0.7;;
4325;SDS011;58429;49.826;10.880;2024-02-15T05:33:38;1;;;0.7;;
4325;SDS011;58429;49.826;10.880;2024-02-15T05:34:38;0.8;;;0.8;;
4325;SDS011;58429;49.826;10.880;2024-02-15T05:35:38;0.8;;;0.8;;
4325;SDS011;58429;49.826;10.880;2024-02-15T05:36:38;0.8;;;0.8;;
4325;SDS011;58429;49.826;10.880;2024-02-15T05:37:38;1;;;0.7;;
4325;SDS011;58429;49.826;10.880;2024-02-15T05:38:38;1;;;0.7;;
4325;SDS011;58429;49.826;10.880;2024-02-15T05:39:38;1;;;0.7;;
4325;SDS011;58429;49.826;10.880;2024-02-15T05:40:38;0.7;;;0.6;;
4325;SDS011;58429;49.826;10.880;2024-02-15T05:41:38;0.7;;;0.6;;
4325;SDS011;58429;49.826;10.880;2024-02-15T05:42:38;0.7;;;0.6;;
4325;SDS011;58429;49.826;10.880;2024-02-15T05:43:38;0.8;;;0.8;;
4325;SDS011;58429;49.826;10.880;2024-02-15T05:44:38;0.8;;;0.8;;
4325;SDS011;58429;49.826;10.880;2024-02-15T05:45:38;0.8;;;0.8;;
4325;SDS011;58429;49.826;10.880;2024-02-15T05:46:38;0.7;;;0.7;;
4325;SDS011;58429;49.826;10.880;2024-02-15T05:47:38;0.7;;;0.7;;
4325;SDS011;58429;49.826;10.880;2024-02-15T05:48:38;0.7;;;0.7;;
4325;SDS011;58429;49.826;10.880;2024-02-15T05:49:38;0.7;;;0.6;;
4325;SDS011;58429;49.826;10.880;2024-02-15T05:50:38;0.7;;;0.6;;
4325;SDS011;58429;49.826;10.880;2024-02-15T05:51:38;0.7;;;0.6;;
4325;SDS011;58429;49.826;10.880;2024-02-15T05:52:38;0.7;;;0.7;;
4325;SDS011;58429;49.826;10.880;2024-02-15T05:53:38;0.7;;;0.7;;
4325;SDS011;58429;49.826;10.880;2024-02-15T05:54:38;0.7;;;0.7;;
4325;SDS011;58429;49.826;10.880;2024-02-15T05:55:38;0.6;;;0.6;;
4325;SDS011;58429;49.826;10.880;2024-02-15T05:56:38;0.6;;;0.6;;
4325;SDS011;58429;49.826;10.880;2024-02-15T05:57:38;0.6;;;0.6;;
4325;SDS011;58429;49.826;10.880;2024-02-15T05:58:38;1.4;;;0.8;;
4325;SDS011;58429;49.826;10.880;2024-02-15T05:59:38;1.4;;;0.8;;
4325;SDS011;58429;49.826;10.880;2024-02-15T06:00:38;1.4;;;0.8;;
4325;SDS011;58429;49.826;10.880;2024-02-15T06:01:39;0.8;;;0.7;;
4325;SDS011;58429;49.826;10.880;2024-02-15T06:02:38;0.8;;;0.7;;
4325;SDS011;58429;49.826;10.880;2024-02-15T06:03:38;0.8;;;0.7;;
4325;SDS011;58429;49.826;10.880;2024-02-15T06:04:39;0.7;;;0.6;;
4325;SDS011;58429;49.826;10.880;2024-02-15T06:05:38;0.7;;;0.6;;
4325;SDS011;58429;49.826;10.880;2024-02-15T06:06:38;0.7;;;0.6;;
4325;SDS011;58429;49.826;10.880;2024-02-15T06:07:38;0.9;;;0.7;;
4325;SDS011;58429;49.826;10.880;2024-02-15T06:08:38;0.9;;;0.7;;
4325;SDS011;58429;49.826;10.880;2024-02-15T06:09:38;0.9;;;0.7;;
4325;SDS011;58429;49.826;10.880;2024-02-15T06:10:38;0.9;;;0.7;;
4325;SDS011;58429;49.826;10.880;2024-02-15T06:11:38;0.7;;;0.7;;
4325;SDS011;58429;49.826;10.880;2024-02-15T06:12:38;0.7;;;0.7;;
4325;SDS011;58429;49.826;10.880;2024-02-15T06:13:38;0.7;;;0.7;;
4325;SDS011;58429;49.826;10.880;2024-02-15T06:14:43;0.6;;;0.6;;
4325;SDS011;58429;49.826;10.880;2024-02-15T06:15:38;0.6;;;0.6;;
4325;SDS011;58429;49.826;10.880;2024-02-15T06:16:41;0.6;;;0.6;;
4325;SDS011;58429;49.826;10.880;2024-02-15T06:17:38;0.6;;;0.6;;